createdAt,value
2023-04-18T00:03:21.486Z,8.90
2023-04-18T00:06:39.333Z,8.90
2023-04-18T00:10:34.214Z,9.70
2023-04-18T00:14:00.792Z,9.70
2023-04-18T00:17:48.357Z,8.50
2023-04-18T00:21:44.045Z,10.50
2023-04-18T00:25:01.021Z,9.90
2023-04-18T00:28:46.840Z,6.50
2023-04-18T00:32:24.291Z,7.00
2023-04-18T00:36:10.541Z,9.20
2023-04-18T00:39:38.237Z,8.70
2023-04-18T00:43:25.093Z,8.90
2023-04-18T00:47:01.484Z,7.60
2023-04-18T00:50:55.461Z,8.70
2023-04-18T00:54:16.404Z,8.30
2023-04-18T00:57:51.737Z,9.00
2023-04-18T01:01:40.309Z,8.80
2023-04-18T01:05:14.290Z,11.40
2023-04-18T01:08:49.706Z,8.00
2023-04-18T01:12:37.701Z,10.40
2023-04-18T01:16:38.256Z,10.10
2023-04-18T01:19:51.151Z,9.00
2023-04-18T01:23:30.138Z,9.00
2023-04-18T01:27:17.114Z,8.70
2023-04-18T01:30:54.648Z,9.60
2023-04-18T01:34:22.096Z,7.70
2023-04-18T01:38:01.253Z,8.80
2023-04-18T01:41:36.620Z,7.70
2023-04-18T01:45:22.437Z,7.40
2023-04-18T01:48:57.447Z,7.30
2023-04-18T01:52:43.170Z,7.90
2023-04-18T01:56:27.754Z,8.10
2023-04-18T01:59:57.721Z,10.00
2023-04-18T02:03:43.688Z,9.20
2023-04-18T02:07:18.169Z,8.20
2023-04-18T02:11:04.590Z,8.70
2023-04-18T02:14:57.080Z,10.00
2023-04-18T02:18:36.667Z,8.00
2023-04-18T02:21:56.784Z,7.70
2023-04-18T02:25:34.511Z,9.60
2023-04-18T02:29:12.068Z,8.90
2023-04-18T02:32:58.157Z,7.30
2023-04-18T02:36:43.048Z,7.70
2023-04-18T02:40:28.467Z,8.40
2023-04-18T02:44:14.763Z,9.60
2023-04-18T02:47:54.593Z,9.80
2023-04-18T02:51:21.558Z,8.70
2023-04-18T02:55:10.239Z,9.00
2023-04-18T02:58:36.987Z,7.90
2023-04-18T03:02:52.867Z,8.30
2023-04-18T03:06:12.614Z,9.40
2023-04-18T03:09:58.052Z,8.60
2023-04-18T03:13:28.046Z,9.00
2023-04-18T03:17:13.936Z,8.40
2023-04-18T03:21:08.126Z,8.50
2023-04-18T03:24:27.993Z,9.00
2023-04-18T03:28:14.730Z,9.20
2023-04-18T03:31:52.430Z,9.00
2023-04-18T03:35:28.409Z,8.30
2023-04-18T03:39:30.230Z,8.30
2023-04-18T03:42:51.213Z,8.10
2023-04-18T03:46:38.946Z,12.00
2023-04-18T03:50:07.570Z,10.00
2023-04-18T03:53:54.314Z,9.10
2023-04-18T03:57:37.711Z,11.40
2023-04-18T04:01:01.119Z,10.20
2023-04-18T04:04:37.286Z,8.70
2023-04-18T04:08:29.874Z,9.30
2023-04-18T04:11:59.659Z,9.00
2023-04-18T04:15:39.504Z,9.60
2023-04-18T04:19:13.141Z,8.50
2023-04-18T04:23:19.945Z,8.70
2023-04-18T04:26:42.855Z,8.20
2023-04-18T04:30:19.477Z,9.90
2023-04-18T04:33:53.990Z,8.10
2023-04-18T04:37:44.160Z,9.60
2023-04-18T04:41:16.560Z,10.30
2023-04-18T04:45:01.696Z,10.00
2023-04-18T04:48:38.999Z,8.90
2023-04-18T04:52:20.305Z,10.10
2023-04-18T04:55:55.149Z,10.30
2023-04-18T04:59:33.525Z,8.50
2023-04-18T05:03:19.230Z,8.00
2023-04-18T05:06:56.541Z,8.70
2023-04-18T05:10:37.012Z,9.40
2023-04-18T05:14:12.921Z,10.60
2023-04-18T05:17:50.748Z,8.20
2023-04-18T05:21:26.208Z,10.30
2023-04-18T05:25:12.363Z,9.20
2023-04-18T05:28:56.005Z,8.30
2023-04-18T05:32:39.383Z,9.20
2023-04-18T05:36:24.610Z,9.20
2023-04-18T05:40:01.617Z,8.40
2023-04-18T05:43:37.308Z,8.60
2023-04-18T05:47:24.154Z,8.50
2023-04-18T05:51:00.994Z,11.30
2023-04-18T05:54:35.328Z,8.90
2023-04-18T05:58:36.899Z,9.20
2023-04-18T06:02:13.002Z,8.50
2023-04-18T06:05:33.585Z,9.20
2023-04-18T06:09:18.177Z,9.90
2023-04-18T06:13:03.142Z,8.20
2023-04-18T06:16:40.819Z,9.50
2023-04-18T06:20:18.201Z,7.20
2023-04-18T06:24:16.540Z,10.00
2023-04-18T06:27:35.164Z,9.60
2023-04-18T06:31:11.350Z,10.80
2023-04-18T06:34:49.188Z,10.90
2023-04-18T06:38:26.666Z,10.60
2023-04-18T06:42:11.765Z,9.10
2023-04-18T06:45:49.514Z,7.00
2023-04-18T06:49:30.082Z,8.20
2023-04-18T06:53:24.791Z,9.30
2023-04-18T06:56:42.090Z,10.60
2023-04-18T07:00:21.868Z,9.90
2023-04-18T07:03:57.528Z,10.10
2023-04-18T07:07:45.378Z,10.10
2023-04-18T07:11:13.324Z,9.80
2023-04-18T07:14:58.105Z,12.10
2023-04-18T07:18:38.514Z,11.00
2023-04-18T07:22:14.910Z,9.80
2023-04-18T07:25:51.141Z,9.00
2023-04-18T07:29:26.744Z,9.40
2023-04-18T07:33:31.064Z,9.40
2023-04-18T07:36:47.111Z,10.00
2023-04-18T07:40:31.868Z,11.30
2023-04-18T07:44:36.332Z,10.00
2023-04-18T07:47:47.363Z,11.50
2023-04-18T07:51:25.415Z,9.90
2023-04-18T07:55:11.836Z,10.20
2023-04-18T07:58:47.857Z,9.30
2023-04-18T08:02:42.101Z,9.60
2023-04-18T08:06:08.013Z,9.70
2023-04-18T08:09:41.022Z,9.10
2023-04-18T08:13:18.537Z,11.20
2023-04-18T08:17:04.398Z,9.20
2023-04-18T08:20:31.989Z,9.40
2023-04-18T08:24:14.746Z,10.30
2023-04-18T08:27:58.289Z,8.80
2023-04-18T08:31:42.898Z,11.00
2023-04-18T08:35:21.974Z,8.80
2023-04-18T08:38:58.350Z,8.30
2023-04-18T08:43:04.601Z,7.10
2023-04-18T08:46:14.586Z,8.10
2023-04-18T08:50:10.722Z,7.70
2023-04-18T08:53:39.349Z,9.90
2023-04-18T08:57:34.492Z,7.50
2023-04-18T09:00:52.915Z,9.40
2023-04-18T09:04:36.515Z,8.00
2023-04-18T09:08:23.880Z,8.30
2023-04-18T09:11:48.031Z,7.50
2023-04-18T09:15:20.423Z,7.80
2023-04-18T09:19:12.913Z,9.60
2023-04-18T09:22:46.276Z,8.20
2023-04-18T09:26:10.166Z,7.80
2023-04-18T09:29:49.497Z,7.70
2023-04-18T09:34:01.531Z,6.90
2023-04-18T09:37:11.688Z,9.50
2023-04-18T09:41:10.800Z,8.10
2023-04-18T09:45:03.849Z,7.60
2023-04-18T09:48:12.073Z,6.50
2023-04-18T09:52:07.196Z,7.60
2023-04-18T09:55:26.582Z,7.70
2023-04-18T09:59:11.382Z,7.90
2023-04-18T10:03:23.557Z,7.90
2023-04-18T10:06:39.562Z,6.90
2023-04-18T10:10:26.462Z,4.80
2023-04-18T10:14:05.952Z,5.80
2023-04-18T10:18:02.757Z,5.50
2023-04-18T10:21:17.520Z,5.90
2023-04-18T10:24:56.406Z,6.20
2023-04-18T10:28:53.340Z,8.00
2023-04-18T10:32:28.460Z,6.50
2023-04-18T10:36:00.705Z,5.50
2023-04-18T10:39:27.047Z,6.30
2023-04-18T10:43:21.969Z,5.50
2023-04-18T10:46:42.981Z,4.60
2023-04-18T10:50:19.742Z,4.30
2023-04-18T10:54:00.503Z,7.70
2023-04-18T10:57:43.981Z,4.70
2023-04-18T11:01:15.732Z,5.10
2023-04-18T11:04:52.962Z,4.80
2023-04-18T11:08:28.759Z,4.40
2023-04-18T11:12:14.062Z,5.50
2023-04-18T11:15:52.966Z,7.00
2023-04-18T11:19:24.225Z,8.20
2023-04-18T11:23:21.116Z,7.10
2023-04-18T11:26:50.731Z,7.80
2023-04-18T11:30:24.520Z,6.60
2023-04-18T11:34:00.326Z,6.80
2023-04-18T11:37:53.073Z,6.30
2023-04-18T11:41:22.784Z,6.20
2023-04-18T11:45:00.630Z,3.80
2023-04-18T11:48:39.049Z,5.70
2023-04-18T11:52:17.038Z,5.50
2023-04-18T11:56:20.700Z,5.70
2023-04-18T11:59:30.530Z,6.60
2023-04-18T12:03:25.714Z,9.40
2023-04-18T12:06:55.105Z,8.00
2023-04-18T12:10:32.669Z,6.90
2023-04-18T12:14:24.182Z,6.90
2023-04-18T12:17:48.640Z,6.40
2023-04-18T12:22:00.164Z,7.60
2023-04-18T12:25:23.389Z,7.80
2023-04-18T12:28:38.455Z,7.50
2023-04-18T12:32:22.267Z,7.30
2023-04-18T12:36:23.815Z,7.00
2023-04-18T12:39:42.737Z,6.80
2023-04-18T12:43:27.670Z,7.70
2023-04-18T12:47:05.197Z,7.50
2023-04-18T12:50:46.518Z,6.20
2023-04-18T12:54:30.729Z,5.80
2023-04-18T12:57:58.162Z,6.00
2023-04-18T13:01:57.880Z,9.30
2023-04-18T13:05:21.198Z,6.80
2023-04-18T13:09:06.287Z,7.10
2023-04-18T13:13:01.588Z,6.50
2023-04-18T13:16:19.582Z,5.90
2023-04-18T13:20:19.913Z,6.60
2023-04-18T13:23:42.389Z,6.20
2023-04-18T13:27:19.998Z,5.50
2023-04-18T13:31:16.338Z,6.90
2023-04-18T13:34:47.652Z,5.40
2023-04-18T13:38:11.341Z,5.40
2023-04-18T13:41:58.019Z,11.30
2023-04-18T13:45:57.558Z,4.30
2023-04-18T13:49:35.715Z,6.00
2023-04-18T13:53:17.453Z,6.80
2023-04-18T13:56:36.032Z,5.90
2023-04-18T14:00:15.697Z,7.80
2023-04-18T14:03:51.339Z,4.40
2023-04-18T14:07:31.260Z,6.40
2023-04-18T14:11:04.808Z,5.30
2023-04-18T14:14:47.495Z,7.70
2023-04-18T14:18:37.962Z,6.00
2023-04-18T14:22:25.381Z,6.10
2023-04-18T14:25:56.282Z,4.90
2023-04-18T14:29:25.769Z,6.50
2023-04-18T14:33:01.136Z,4.70
2023-04-18T14:36:44.765Z,5.50
2023-04-18T14:40:31.437Z,5.20
2023-04-18T14:44:07.632Z,4.50
2023-04-18T14:47:45.850Z,4.70
2023-04-18T14:51:23.859Z,6.70
2023-04-18T14:54:58.177Z,4.80
2023-04-18T14:58:59.814Z,5.00
2023-04-18T15:02:47.564Z,6.10
2023-04-18T15:05:57.333Z,5.10
2023-04-18T15:09:40.563Z,6.50
2023-04-18T15:13:35.643Z,6.80
2023-04-18T15:17:07.567Z,5.10
2023-04-18T15:20:40.648Z,4.20
2023-04-18T15:24:36.995Z,4.50
2023-04-18T15:28:13.285Z,6.20
2023-04-18T15:31:51.657Z,4.70
2023-04-18T15:35:10.551Z,4.60
2023-04-18T15:38:58.602Z,6.40
2023-04-18T15:42:32.975Z,5.60
2023-04-18T15:46:11.372Z,6.10
2023-04-18T15:50:09.031Z,4.80
2023-04-18T15:53:36.241Z,6.10
2023-04-18T15:57:20.498Z,5.40
2023-04-18T16:00:41.012Z,5.20
2023-04-18T16:04:42.676Z,4.80
2023-04-18T16:08:08.899Z,6.20
2023-04-18T16:11:39.190Z,5.60
2023-04-18T16:15:24.122Z,4.40
2023-04-18T16:19:00.730Z,4.10
2023-04-18T16:23:02.504Z,6.10
2023-04-18T16:26:41.015Z,4.60
2023-04-18T16:30:01.150Z,4.20
2023-04-18T16:33:42.021Z,4.20
2023-04-18T16:37:14.242Z,5.20
2023-04-18T16:40:58.869Z,5.60
2023-04-18T16:44:41.753Z,4.40
2023-04-18T16:48:41.394Z,6.90
2023-04-18T16:52:14.193Z,4.80
2023-04-18T16:55:40.208Z,4.40
2023-04-18T16:59:23.842Z,6.60
2023-04-18T17:03:10.064Z,9.10
2023-04-18T17:07:11.717Z,6.30
2023-04-18T17:10:34.403Z,4.30
2023-04-18T17:14:20.321Z,5.20
2023-04-18T17:18:05.266Z,5.70
2023-04-18T17:21:23.739Z,5.00
2023-04-18T17:25:26.980Z,6.20
2023-04-18T17:29:13.399Z,8.30
2023-04-18T17:32:27.332Z,7.10
2023-04-18T17:36:26.552Z,7.00
2023-04-18T17:39:56.521Z,6.00
2023-04-18T17:43:15.123Z,4.90
2023-04-18T17:47:07.899Z,5.30
2023-04-18T17:50:38.152Z,5.40
2023-04-18T17:54:13.550Z,5.20
2023-04-18T17:57:59.277Z,5.80
2023-04-18T18:01:39.341Z,5.80
2023-04-18T18:05:14.754Z,5.60
2023-04-18T18:08:49.357Z,5.70
2023-04-18T18:12:35.274Z,5.50
2023-04-18T18:16:27.952Z,4.50
2023-04-18T18:20:06.358Z,5.20
2023-04-18T18:23:55.895Z,5.50
2023-04-18T18:27:23.228Z,5.00
2023-04-18T18:30:52.460Z,6.00
2023-04-18T18:34:29.897Z,5.20
2023-04-18T18:38:18.102Z,6.20
2023-04-18T18:42:09.325Z,5.10
2023-04-18T18:45:33.844Z,5.50
2023-04-18T18:49:18.417Z,5.20
2023-04-18T18:52:44.219Z,6.80
2023-04-18T18:56:28.832Z,7.00
2023-04-18T19:00:10.815Z,6.60
2023-04-18T19:03:42.594Z,8.20
2023-04-18T19:07:27.482Z,6.30
2023-04-18T19:11:28.994Z,6.40
2023-04-18T19:14:59.166Z,6.90
2023-04-18T19:18:28.939Z,8.00
2023-04-18T19:22:14.336Z,8.50
2023-04-18T19:25:47.748Z,10.40
2023-04-18T19:29:23.270Z,11.40
2023-04-18T19:32:59.407Z,10.20
2023-04-18T19:36:52.838Z,9.50
2023-04-18T19:40:39.734Z,6.60
2023-04-18T19:43:52.446Z,6.80
2023-04-18T19:47:32.312Z,7.90
2023-04-18T19:51:24.948Z,9.10
2023-04-18T19:54:54.492Z,8.00
2023-04-18T19:58:44.918Z,7.80
2023-04-18T20:02:16.724Z,7.20
2023-04-18T20:05:55.703Z,6.40
2023-04-18T20:09:30.184Z,7.70
2023-04-18T20:13:15.305Z,7.80
2023-04-18T20:16:59.326Z,7.90
2023-04-18T20:20:42.758Z,8.70
2023-04-18T20:24:28.290Z,6.20
2023-04-18T20:28:13.460Z,6.80
2023-04-18T20:32:05.172Z,8.20
2023-04-18T20:35:29.788Z,8.40
2023-04-18T20:39:06.351Z,6.10
2023-04-18T20:42:51.928Z,7.30
2023-04-18T20:46:29.168Z,6.20
2023-04-18T20:50:23.322Z,5.60
2023-04-18T20:53:47.592Z,5.50
2023-04-18T20:57:31.944Z,5.50
2023-04-18T21:00:59.507Z,7.80
2023-04-18T21:04:36.343Z,6.80
2023-04-18T21:08:21.124Z,6.00
2023-04-18T21:12:06.427Z,6.00
2023-04-18T21:15:52.047Z,4.90
2023-04-18T21:19:28.837Z,5.40
2023-04-18T21:23:07.394Z,5.70
2023-04-18T21:26:44.232Z,7.50
2023-04-18T21:30:38.821Z,6.70
2023-04-18T21:34:00.937Z,6.50
2023-04-18T21:37:37.657Z,7.00
2023-04-18T21:41:17.339Z,4.80
2023-04-18T21:45:02.047Z,6.00
2023-04-18T21:48:37.657Z,4.30
2023-04-18T21:52:22.260Z,5.70
2023-04-18T21:55:59.071Z,8.20
2023-04-18T21:59:43.607Z,9.20
2023-04-18T22:03:29.758Z,5.40
2023-04-18T22:07:06.709Z,5.30
2023-04-18T22:10:50.457Z,6.10
2023-04-18T22:14:21.339Z,6.20
2023-04-18T22:18:00.052Z,4.70
2023-04-18T22:21:36.796Z,5.70
2023-04-18T22:25:14.603Z,5.10
2023-04-18T22:28:52.196Z,6.10
2023-04-18T22:32:29.920Z,4.80
2023-04-18T22:36:09.032Z,5.80
2023-04-18T22:39:46.182Z,5.20
2023-04-18T22:43:25.060Z,5.00
2023-04-18T22:47:03.267Z,4.70
2023-04-18T22:50:42.625Z,4.50
2023-04-18T22:54:26.402Z,5.20
2023-04-18T22:57:57.305Z,5.10
2023-04-18T23:01:31.646Z,5.50
2023-04-18T23:05:12.051Z,4.40
2023-04-18T23:08:47.882Z,5.30
2023-04-18T23:12:23.696Z,6.00
2023-04-18T23:16:10.110Z,4.10
2023-04-18T23:19:49.770Z,6.00
2023-04-18T23:23:27.463Z,5.50
2023-04-18T23:27:01.581Z,4.80
2023-04-18T23:30:39.421Z,6.40
2023-04-18T23:34:16.970Z,4.80
2023-04-18T23:37:54.439Z,5.30
2023-04-18T23:41:39.986Z,4.20
2023-04-18T23:45:17.264Z,6.80
2023-04-18T23:48:54.699Z,5.20
2023-04-18T23:52:48.006Z,5.20
2023-04-18T23:56:10.369Z,4.80
